OKBO2: North Canadian River at Britton Rd at OKC, OK

Data processed at Thu Jan 04 2018 23:24


All information presented herein is the property of the government of the United States of America and may be revised or deleted at any time without prior notice.
Dissemination of this information without the expressed written consent of the Public Affairs Office, Tulsa District U.S. Army Corps of Engineers is strictly prohibited.
These data are gathered electronically and, as presented, have not undergone any form of quality control. These data are not guaranteed to be valid or correct.
Go to home page.
Go to station list.

Upstream stations:

Downstream station:
Previous Day
Next Day
Current Day
    
SHEF ID:       OKBO2     North Canadian River at Britton
STATION TYPE:  

                STAGE  RIV-FLOW  WTR-TEMP   DIS-OXY   CONDUCT  BAT-LOAD
                   ft       cfs         F      mg/l   umho/cm      volt
              Ccp-Rev   Ccp-Rev   Ccp-Rev   Ccp-Rev   Ccp-Rev   Ccp-Rev
(US/Central)
01/02 00:00      6.29        16     31.96     14.18      1357     12.77
01/02 01:00      6.43        28     31.96     14.02      1354     12.71
01/02 02:00      6.44        29     31.96     13.87      1345     12.71
01/02 03:00      6.22        11     31.96     13.72      1338     12.71
01/02 04:00      6.37        22     31.96     13.59      1335     12.71
01/02 05:00      6.38        23     31.96     13.51      1338     12.65
01/02 06:00      6.22        11     31.98     13.43      1341     12.65
01/02 07:00      6.30        17     31.98     13.39      1346     12.65
01/02 08:00      6.30        17     31.98     13.33      1350     12.65
01/02 09:00      6.30        17     32.02     13.30      1351     12.65
01/02 10:00      6.15         7     32.05     13.41      1348     13.00
01/02 11:00      6.09         4     32.11     13.65      1338     13.83
01/02 12:00      6.17         8     32.18     13.88      1324     14.30
01/02 13:00      6.14         6     32.23     14.12      1304     14.35
01/02 14:00      6.07         4     32.25     14.35      1281     14.30
01/02 15:00      6.08         4     32.20     14.49      1261     14.24
01/02 16:00      6.09         4     32.20     14.58      1240     14.24
01/02 17:00      6.09         4     32.16     14.54      1219     14.12
01/02 18:00      6.25        13     32.09     14.37      1198     13.77
01/02 19:00      6.30        17     32.04     14.15      1181     13.36
01/02 20:00      6.30        17     32.02     13.97      1171     13.07
01/02 21:00      6.33        19     32.00     13.82      1170     12.89
01/02 22:00      6.12         6     31.98     13.68      1180     12.89
01/02 23:00      6.32        18     31.98     13.56      1198     12.83